Time;durP1;ratioP1;P1;durP2;ratioP2;P2;SDS_P1;SDS_P2;PMS_P1;PMS_P2;Temp;Humidity;BMP_temperature;BMP_pressure;BME280_temperature;BME280_humidity;BME280_pressure;Samples;Min_cycle;Max_cycle;Signal;HPM_P1;HPM_P2
2023/04/01 00:00:56;;;;;;;;;;;14.60;99.90;;;;;;7408194;19;19918;-74
2023/04/01 00:03:23;;;;;;;22.15;5.80;;;14.60;99.90;;;;;;7403358;19;22562;-74
2023/04/01 00:05:49;;;;;;;18.38;5.78;;;14.60;99.90;;;;;;7354292;19;19929;-74
2023/04/01 00:08:15;;;;;;;21.92;6.38;;;14.60;99.90;;;;;;7379253;19;19994;-73
2023/04/01 00:10:41;;;;;;;21.13;6.10;;;14.50;99.90;;;;;;7404133;19;19918;-74
2023/04/01 00:13:07;;;;;;;17.05;6.20;;;14.60;99.90;;;;;;7347551;19;19940;-74
2023/04/01 00:15:33;;;;;;;15.73;5.03;;;14.50;99.90;;;;;;7403893;19;19922;-75
2023/04/01 00:17:59;;;;;;;19.10;6.03;;;14.50;99.90;;;;;;7403251;19;20387;-74
2023/04/01 00:20:25;;;;;;;18.95;6.28;;;14.50;99.90;;;;;;7402068;19;19929;-74
2023/04/01 00:22:51;;;;;;;19.58;6.50;;;14.50;99.90;;;;;;7404494;19;20845;-74
2023/04/01 00:25:18;;;;;;;20.20;6.45;;;14.40;99.90;;;;;;7402409;19;19931;-75
2023/04/01 00:27:44;;;;;;;20.83;6.35;;;14.40;99.90;;;;;;7403003;19;20457;-74
2023/04/01 00:30:10;;;;;;;18.08;5.50;;;14.40;99.90;;;;;;7402155;19;19974;-75
2023/04/01 00:32:37;;;;;;;14.73;6.50;;;14.40;99.90;;;;;;7405416;19;20267;-75
2023/04/01 00:35:03;;;;;;;20.83;6.05;;;14.40;99.90;;;;;;7403003;19;19955;-74
2023/04/01 00:37:29;;;;;;;19.45;5.80;;;14.30;99.90;;;;;;7403831;19;19928;-75
2023/04/01 00:39:55;;;;;;;15.95;6.05;;;14.30;99.90;;;;;;7403183;19;20254;-75
2023/04/01 00:42:21;;;;;;;14.27;5.32;;;14.30;99.90;;;;;;7400594;19;19922;-74
2023/04/01 00:44:53;;;;;;;18.85;6.22;;;14.20;99.90;;;;;;7404571;19;19933;-73
2023/04/01 00:47:20;;;;;;;19.35;5.90;;;14.30;99.90;;;;;;7402307;19;19922;-75
2023/04/01 00:49:50;;;;;;;24.00;7.03;;;14.30;99.90;;;;;;7401084;19;19922;-74
2023/04/01 00:52:22;;;;;;;20.75;6.40;;;14.20;99.90;;;;;;7403336;19;19915;-75
2023/04/01 00:54:52;;;;;;;20.25;5.70;;;14.20;99.90;;;;;;7402645;19;19947;-74
2023/04/01 00:57:30;;;;;;;19.63;5.47;;;14.20;99.90;;;;;;7400081;19;19950;-74
2023/04/01 00:59:57;;;;;;;23.58;6.50;;;14.20;99.90;;;;;;7402950;19;19923;-74
2023/04/01 01:02:24;;;;;;;;;;;14.10;99.90;;;;;;7400966;19;19930;-74
2023/04/01 01:04:50;;;;;;;18.10;6.35;;;14.10;99.90;;;;;;7402082;19;20275;-74
2023/04/01 01:07:40;;;;;;;22.35;6.00;;;14.00;99.90;;;;;;7401276;19;20278;-73
2023/04/01 01:10:26;;;;;;;18.92;6.22;;;14.00;99.90;;;;;;7398382;19;19957;-74
2023/04/01 01:13:10;;;;;;;24.27;6.03;;;14.00;99.90;;;;;;7399600;19;20018;-74
2023/04/01 01:15:40;;;;;;;21.85;5.80;;;13.90;99.90;;;;;;7402964;19;20407;-74
2023/04/01 01:18:15;;;;;;;18.52;5.47;;;13.90;99.90;;;;;;7401775;19;19914;-74
2023/04/01 01:20:49;;;;;;;18.77;6.63;;;14.00;99.90;;;;;;7396841;19;19935;-74
2023/04/01 01:23:36;;;;;;;21.67;6.03;;;13.90;99.90;;;;;;7399800;19;19946;-75
2023/04/01 01:26:05;;;;;;;20.92;6.38;;;13.80;99.90;;;;;;7398981;19;20511;-73
2023/04/01 01:29:09;;;;;;;17.42;5.03;;;13.80;99.90;;;;;;7400780;19;19918;-73
2023/04/01 01:31:54;;;;;;;;;;;13.80;99.90;;;;;;7401902;19;19915;-73
2023/04/01 01:34:28;;;;;;;22.17;5.80;;;13.80;99.90;;;;;;7399203;19;19922;-74
2023/04/01 01:36:59;;;;;;;24.30;7.93;;;13.80;99.90;;;;;;7402243;19;20275;-74
2023/04/01 01:39:30;;;;;;;15.77;5.57;;;13.90;99.90;;;;;;7378391;19;19922;-74
2023/04/01 01:42:07;;;;;;;20.90;7.22;;;13.80;99.90;;;;;;7401793;19;19926;-75
2023/04/01 01:44:35;;;;;;;27.17;5.68;;;13.80;99.90;;;;;;7402872;19;20762;-74
2023/04/01 01:47:02;;;;;;;17.20;5.72;;;13.80;99.90;;;;;;7401077;19;19947;-74
2023/04/01 01:49:30;;;;;;;17.10;5.40;;;13.80;99.90;;;;;;7398193;19;19926;-74
2023/04/01 01:51:56;;;;;;;23.33;6.72;;;13.80;99.90;;;;;;7399565;19;20311;-74
2023/04/01 01:54:22;;;;;;;22.48;6.38;;;13.80;99.90;;;;;;7406458;19;19922;-74
2023/04/01 01:56:51;;;;;;;29.10;7.15;;;13.80;99.90;;;;;;7407052;19;19926;-74
2023/04/01 01:59:20;;;;;;;26.83;6.63;;;13.70;99.90;;;;;;7405047;19;19920;-74
2023/04/01 02:01:50;;;;;;;25.45;6.03;;;13.70;99.90;;;;;;7407046;19;19916;-75
2023/04/01 02:04:19;;;;;;;18.05;5.22;;;13.80;99.90;;;;;;7406382;19;19949;-74
2023/04/01 02:07:05;;;;;;;16.65;6.03;;;13.70;99.90;;;;;;7405991;19;19914;-73
2023/04/01 02:09:31;;;;;;;18.95;6.78;;;13.70;99.90;;;;;;7403691;19;19914;-74
2023/04/01 02:12:09;;;;;;;19.10;6.32;;;13.70;99.90;;;;;;7356616;19;19911;-75
2023/04/01 02:14:53;;;;;;;21.98;6.07;;;13.70;99.90;;;;;;7384378;19;19915;-75
2023/04/01 02:17:26;;;;;;;30.08;6.55;;;13.80;99.90;;;;;;7401961;19;19931;-73
2023/04/01 02:19:54;;;;;;;;;;;13.70;99.90;;;;;;7409355;19;19907;-74
2023/04/01 02:22:29;;;;;;;23.00;6.30;;;13.70;99.90;;;;;;7402534;19;19919;-74
2023/04/01 02:25:00;;;;;;;24.92;7.80;;;13.70;99.90;;;;;;7406457;19;19919;-74
2023/04/01 02:27:26;;;;;;;26.95;6.30;;;13.70;99.90;;;;;;7404990;19;19919;-74
2023/04/01 02:29:52;;;;;;;22.20;6.40;;;13.70;99.90;;;;;;7405464;19;19918;-75
2023/04/01 02:32:20;;;;;;;19.90;7.72;;;13.70;99.90;;;;;;7382832;19;20023;-74
2023/04/01 02:34:48;;;;;;;23.25;6.97;;;13.70;99.90;;;;;;7406078;19;19918;-74
2023/04/01 02:37:15;;;;;;;20.00;6.75;;;13.70;99.90;;;;;;7405774;19;20526;-74
2023/04/01 02:39:42;;;;;;;27.17;6.82;;;13.80;99.90;;;;;;7405382;19;19919;-75
2023/04/01 02:42:08;;;;;;;25.13;6.57;;;13.80;99.90;;;;;;7405927;19;19914;-74
2023/04/01 02:44:34;;;;;;;20.75;5.93;;;13.80;99.90;;;;;;7404707;19;20002;-74
2023/04/01 02:47:00;;;;;;;26.83;5.88;;;13.70;99.90;;;;;;7406590;19;19918;-74
2023/04/01 02:49:26;;;;;;;21.58;6.18;;;13.80;99.90;;;;;;7402220;19;20359;-74
2023/04/01 02:51:53;;;;;;;25.45;6.22;;;13.80;99.90;;;;;;7406487;19;19942;-73
2023/04/01 02:54:20;;;;;;;24.05;6.40;;;13.80;99.90;;;;;;7401644;19;19933;-73
2023/04/01 02:56:46;;;;;;;20.65;6.65;;;13.80;99.90;;;;;;7404622;19;19978;-75
2023/04/01 02:59:13;;;;;;;29.25;8.32;;;13.80;99.90;;;;;;7403468;19;19948;-75
2023/04/01 03:01:39;;;;;;;25.02;6.50;;;13.90;99.90;;;;;;7406062;19;19915;-73
2023/04/01 03:04:05;;;;;;;21.73;6.22;;;13.90;99.90;;;;;;7405447;19;19917;-74
2023/04/01 03:06:31;;;;;;;21.77;5.93;;;13.90;99.90;;;;;;7403726;19;19921;-74
2023/04/01 03:08:57;;;;;;;23.75;7.55;;;13.90;99.90;;;;;;7372077;19;20268;-73
2023/04/01 03:11:23;;;;;;;30.27;6.97;;;13.90;99.90;;;;;;7405333;19;19935;-73
2023/04/01 03:13:49;;;;;;;29.40;7.78;;;13.90;99.90;;;;;;7405358;19;19923;-73
2023/04/01 03:16:15;;;;;;;24.05;6.50;;;13.90;99.90;;;;;;7402547;19;19917;-74
2023/04/01 03:18:40;;;;;;;22.45;6.72;;;13.90;99.90;;;;;;7404476;19;19922;-74
2023/04/01 03:21:21;;;;;;;25.15;7.13;;;14.00;99.90;;;;;;7404980;19;20319;-74
2023/04/01 03:23:47;;;;;;;25.02;6.40;;;13.90;99.90;;;;;;7401659;19;19936;-75
2023/04/01 03:26:14;;;;;;;27.08;6.85;;;13.90;99.90;;;;;;7404696;19;20335;-73
2023/04/01 03:28:41;;;;;;;26.38;7.00;;;13.90;99.90;;;;;;7406371;19;20355;-74
2023/04/01 03:31:07;;;;;;;31.85;7.93;;;13.90;99.90;;;;;;7404926;19;19951;-74
2023/04/01 03:33:33;;;;;;;22.98;6.53;;;13.90;99.90;;;;;;7405672;19;19914;-74
2023/04/01 03:35:58;;;;;;;24.23;7.28;;;13.90;99.90;;;;;;7407819;19;19927;-74
2023/04/01 03:38:24;;;;;;;25.13;6.88;;;13.90;99.90;;;;;;7403890;19;19911;-74
2023/04/01 03:40:50;;;;;;;25.77;8.20;;;13.90;99.90;;;;;;7406887;19;20260;-74
2023/04/01 03:43:16;;;;;;;28.25;6.97;;;13.90;99.90;;;;;;7380613;19;20086;-74
2023/04/01 03:45:46;;;;;;;22.42;6.90;;;13.90;99.90;;;;;;7383377;19;19922;-74
2023/04/01 03:48:13;;;;;;;26.92;7.50;;;13.90;99.90;;;;;;7404547;19;19923;-73
2023/04/01 03:50:40;;;;;;;25.20;7.30;;;13.90;99.90;;;;;;7406419;19;19918;-73
2023/04/01 03:53:06;;;;;;;27.98;7.75;;;13.90;99.90;;;;;;7400936;19;19922;-75
2023/04/01 03:55:31;;;;;;;24.55;8.32;;;14.00;99.90;;;;;;7404469;19;20255;-75
2023/04/01 03:57:57;;;;;;;27.80;7.88;;;14.00;99.90;;;;;;7404024;19;19918;-74
2023/04/01 04:00:23;;;;;;;24.33;6.60;;;14.00;99.90;;;;;;7401772;19;19941;-75
2023/04/01 04:02:49;;;;;;;20.70;7.43;;;14.10;99.90;;;;;;7404345;19;19918;-75
2023/04/01 04:05:16;;;;;;;22.67;6.32;;;14.10;99.90;;;;;;7401785;19;19918;-75
2023/04/01 04:07:42;;;;;;;28.67;7.25;;;14.20;99.90;;;;;;7403658;19;19926;-75
2023/04/01 04:10:08;;;;;;;24.85;6.70;;;14.30;99.90;;;;;;7396572;19;19922;-74
2023/04/01 04:12:34;;;;;;;22.08;6.05;;;14.30;99.90;;;;;;7405053;19;19926;-75
2023/04/01 04:14:59;;;;;;;27.10;7.03;;;14.40;99.90;;;;;;7403300;19;19927;-73
2023/04/01 04:17:25;;;;;;;25.27;7.97;;;14.40;99.90;;;;;;7381236;19;19917;-73
2023/04/01 04:19:51;;;;;;;27.00;7.72;;;14.40;99.90;;;;;;7405753;19;19914;-76
2023/04/01 04:22:17;;;;;;;25.98;6.82;;;14.50;99.90;;;;;;7401347;19;20075;-74
2023/04/01 04:24:43;;;;;;;28.02;7.00;;;14.60;99.90;;;;;;7402212;19;20346;-75
2023/04/01 04:27:08;;;;;;;24.23;6.05;;;14.50;99.90;;;;;;7399519;19;19918;-76
2023/04/01 04:29:34;;;;;;;23.88;7.05;;;14.60;99.90;;;;;;7403554;19;19918;-75
2023/04/01 04:32:00;;;;;;;23.92;6.10;;;14.40;99.90;;;;;;7400813;19;19914;-74
2023/04/01 04:34:26;;;;;;;24.73;6.43;;;14.40;99.90;;;;;;7402084;19;19915;-75
2023/04/01 04:36:53;;;;;;;24.70;6.60;;;14.30;99.90;;;;;;7404095;19;19918;-74
2023/04/01 04:39:19;;;;;;;27.55;7.10;;;14.30;99.90;;;;;;7401999;19;19930;-74
2023/04/01 04:41:45;;;;;;;22.98;7.30;;;14.30;99.90;;;;;;7402018;19;20239;-73
2023/04/01 04:44:11;;;;;;;22.25;6.72;;;14.30;99.90;;;;;;7401782;19;19929;-74
2023/04/01 04:46:39;;;;;;;24.10;7.15;;;14.30;99.90;;;;;;7404316;19;19914;-75
2023/04/01 04:49:05;;;;;;;26.92;7.07;;;14.20;99.90;;;;;;7399081;19;19922;-74
2023/04/01 04:51:33;;;;;;;23.98;7.82;;;14.20;99.90;;;;;;7398499;19;19926;-73
2023/04/01 04:54:00;;;;;;;24.13;6.70;;;14.20;99.90;;;;;;7400910;19;19919;-74
2023/04/01 04:56:26;;;;;;;21.75;7.40;;;14.20;99.90;;;;;;7401539;19;19919;-74
2023/04/01 04:58:52;;;;;;;21.88;6.70;;;14.10;99.90;;;;;;7400846;19;20036;-74
2023/04/01 05:01:18;;;;;;;26.10;7.30;;;14.10;99.90;;;;;;7398601;19;19914;-74
2023/04/01 05:03:45;;;;;;;29.42;7.07;;;14.10;99.90;;;;;;7402882;19;20020;-75
2023/04/01 05:06:14;;;;;;;25.60;6.20;;;14.10;99.90;;;;;;7399872;19;19914;-77
2023/04/01 05:08:41;;;;;;;32.42;7.43;;;14.10;99.90;;;;;;7381745;19;19985;-75
2023/04/01 05:11:12;;;;;;;25.90;6.97;;;14.10;99.90;;;;;;7399705;19;19954;-75
2023/04/01 05:13:38;;;;;;;28.58;7.90;;;14.10;99.90;;;;;;7399442;19;19923;-74
2023/04/01 05:16:07;;;;;;;23.77;6.80;;;14.10;99.90;;;;;;7400052;19;19978;-74
2023/04/01 05:18:33;;;;;;;27.08;7.43;;;14.10;99.90;;;;;;7402402;19;19919;-74
2023/04/01 05:20:58;;;;;;;27.00;7.63;;;14.10;99.90;;;;;;7399628;19;20570;-74
2023/04/01 05:23:24;;;;;;;26.73;6.60;;;14.00;99.90;;;;;;7399736;19;19937;-74
2023/04/01 05:25:52;;;;;;;23.40;7.47;;;14.10;99.90;;;;;;7400368;19;19918;-73
2023/04/01 05:28:19;;;;;;;28.33;7.55;;;14.00;99.90;;;;;;7401182;19;19918;-75
2023/04/01 05:30:45;;;;;;;28.17;8.00;;;14.00;99.90;;;;;;7405276;19;20265;-74
2023/04/01 05:33:12;;;;;;;24.85;8.13;;;14.00;99.90;;;;;;7405935;19;20461;-74
2023/04/01 05:35:40;;;;;;;23.30;7.10;;;14.00;99.90;;;;;;7384031;19;19915;-74
2023/04/01 05:38:06;;;;;;;33.28;7.78;;;14.00;99.90;;;;;;7406558;19;19914;-75
2023/04/01 05:40:33;;;;;;;24.48;7.03;;;14.00;99.90;;;;;;7403541;19;19918;-76
2023/04/01 05:42:59;;;;;;;19.42;6.53;;;14.00;99.90;;;;;;7407073;19;19940;-74
2023/04/01 05:45:25;;;;;;;22.90;6.47;;;14.00;99.90;;;;;;7406607;19;19923;-74
2023/04/01 05:47:52;;;;;;;18.38;6.07;;;14.00;99.90;;;;;;7405814;19;19933;-74
2023/04/01 05:50:18;;;;;;;14.70;4.68;;;14.00;99.90;;;;;;7402117;19;19955;-74
2023/04/01 05:52:44;;;;;;;17.35;4.45;;;14.10;96.20;;;;;;7406595;19;19926;-75
2023/04/01 05:55:10;;;;;;;15.30;4.78;;;14.20;92.70;;;;;;7403304;19;19942;-74
2023/04/01 05:57:36;;;;;;;17.85;5.47;;;14.20;92.80;;;;;;7405752;19;20244;-75
2023/04/01 06:00:03;;;;;;;13.57;4.70;;;14.20;92.50;;;;;;7406701;19;20041;-74
2023/04/01 06:02:30;;;;;;;16.42;4.20;;;14.20;91.70;;;;;;7406640;19;19923;-75
2023/04/01 06:05:20;;;;;;;12.90;4.20;;;14.20;91.60;;;;;;7407633;19;19922;-74
2023/04/01 06:07:46;;;;;;;11.60;4.20;;;14.20;90.10;;;;;;7402962;19;20272;-74
2023/04/01 06:10:18;;;;;;;15.63;4.57;;;14.10;89.50;;;;;;7402823;19;20006;-75
2023/04/01 06:12:51;;;;;;;12.40;3.53;;;14.10;90.30;;;;;;7407334;19;19987;-75
2023/04/01 06:15:44;;;;;;;13.15;3.55;;;14.00;88.50;;;;;;7404796;19;19978;-74
2023/04/01 06:18:31;;;;;;;9.05;3.05;;;14.00;88.70;;;;;;7403804;19;19930;-74
2023/04/01 06:21:15;;;;;;;8.52;2.60;;;13.90;86.70;;;;;;7382005;19;19915;-75
2023/04/01 06:23:59;;;;;;;18.33;4.43;;;13.90;85.80;;;;;;7405347;19;19935;-74
2023/04/01 06:26:46;;;;;;;11.43;3.10;;;13.90;84.90;;;;;;7403940;19;19923;-75
2023/04/01 06:29:29;;;;;;;10.88;2.60;;;13.90;84.20;;;;;;7404841;19;20374;-75
2023/04/01 06:32:32;;;;;;;10.25;4.03;;;13.90;83.90;;;;;;7405603;19;20017;-74
2023/04/01 06:35:15;;;;;;;14.43;3.92;;;13.90;83.80;;;;;;7402604;19;19922;-74
2023/04/01 06:37:52;;;;;;;15.27;4.22;;;13.90;84.10;;;;;;7403629;19;20266;-74
2023/04/01 06:40:27;;;;;;;14.52;4.10;;;13.90;84.00;;;;;;7400390;19;20271;-74
2023/04/01 06:42:53;;;;;;;16.17;4.00;;;13.90;84.10;;;;;;7406691;19;19919;-74
2023/04/01 06:45:37;;;;;;;14.65;3.90;;;13.90;83.50;;;;;;7404853;19;20262;-74
2023/04/01 06:48:18;;;;;;;13.15;3.30;;;13.90;83.10;;;;;;7406386;19;20274;-74
2023/04/01 06:51:20;;;;;;;14.63;4.40;;;13.90;83.30;;;;;;7405790;19;19958;-75
2023/04/01 06:54:10;;;;;;;19.60;4.50;;;13.90;82.90;;;;;;7406922;19;19918;-73
2023/04/01 06:56:40;;;;;;;14.40;3.85;;;13.80;82.90;;;;;;7407236;19;19914;-74
2023/04/01 06:59:13;;;;;;;13.43;4.05;;;13.90;83.10;;;;;;7401505;19;19922;-75
2023/04/01 07:01:50;;;;;;;16.48;4.30;;;13.90;83.00;;;;;;7407382;19;19922;-74
2023/04/01 07:04:38;;;;;;;14.90;4.07;;;13.90;83.30;;;;;;7405481;19;19923;-75
2023/04/01 07:07:22;;;;;;;19.08;4.72;;;13.90;83.50;;;;;;7401553;19;20330;-74
2023/04/01 07:10:01;;;;;;;14.38;5.07;;;13.90;83.50;;;;;;7407457;19;20255;-74
2023/04/01 07:12:35;;;;;;;;;;;13.90;83.30;;;;;;7405602;19;19949;-73
2023/04/01 07:15:18;;;;;;;13.68;3.67;;;13.90;83.00;;;;;;7404930;19;19926;-74
2023/04/01 07:17:47;;;;;;;15.73;3.83;;;13.90;83.00;;;;;;7400554;19;19923;-74
2023/04/01 07:20:32;;;;;;;12.43;4.00;;;13.90;82.60;;;;;;7404652;19;20363;-74
2023/04/01 07:23:01;;;;;;;13.90;3.67;;;13.90;82.50;;;;;;7404774;19;19926;-74
2023/04/01 07:25:41;;;;;;;12.05;2.88;;;13.90;82.20;;;;;;7369405;19;19981;-74
2023/04/01 07:28:13;;;;;;;12.07;3.63;;;13.90;82.10;;;;;;7404051;19;19910;-74
2023/04/01 07:31:02;;;;;;;15.98;3.70;;;13.90;82.00;;;;;;7402806;19;19938;-74
2023/04/01 07:34:06;;;;;;;14.20;3.78;;;13.80;82.00;;;;;;7403315;19;19919;-74
2023/04/01 07:36:44;;;;;;;11.73;3.85;;;13.80;82.10;;;;;;7400709;19;19914;-74
2023/04/01 07:39:24;;;;;;;17.10;4.38;;;13.80;82.20;;;;;;7405365;19;19922;-76
2023/04/01 07:42:23;;;;;;;11.23;3.38;;;13.80;82.20;;;;;;7403233;19;19919;-74
2023/04/01 07:44:52;;;;;;;12.48;3.42;;;13.90;82.40;;;;;;7400887;19;19911;-74
2023/04/01 07:47:55;;;;;;;14.52;3.20;;;13.90;82.30;;;;;;7403961;19;19935;-75
2023/04/01 07:50:30;;;;;;;14.40;3.55;;;13.90;82.20;;;;;;7396259;19;19915;-76
2023/04/01 07:53:08;;;;;;;13.10;4.03;;;13.90;82.30;;;;;;7402843;19;19915;-74
2023/04/01 07:56:08;;;;;;;11.88;3.33;;;13.90;81.90;;;;;;7402098;19;19922;-75
2023/04/01 07:59:05;;;;;;;11.35;3.60;;;13.90;81.80;;;;;;7363981;19;19911;-74
2023/04/01 08:01:37;;;;;;;17.33;4.70;;;13.90;81.90;;;;;;7341061;19;19925;-75
2023/04/01 08:04:22;;;;;;;18.98;4.72;;;13.90;82.40;;;;;;7389126;19;19907;-73
2023/04/01 08:06:59;;;;;;;13.57;3.65;;;13.90;82.10;;;;;;7383461;19;19922;-74
2023/04/01 08:09:40;;;;;;;16.42;3.97;;;13.90;82.00;;;;;;7391685;19;19914;-74
2023/04/01 08:12:35;;;;;;;15.13;3.75;;;13.90;82.00;;;;;;7394467;19;20351;-75
2023/04/01 08:15:23;;;;;;;14.75;4.00;;;13.90;82.30;;;;;;7397038;19;19950;-75
2023/04/01 08:18:02;;;;;;;11.32;3.70;;;13.90;81.90;;;;;;7396993;19;19974;-76
2023/04/01 08:20:37;;;;;;;14.07;3.75;;;14.00;82.00;;;;;;7395801;19;19922;-76
2023/04/01 08:23:15;;;;;;;10.93;3.95;;;13.90;81.10;;;;;;7391282;19;19926;-76
2023/04/01 08:25:58;;;;;;;11.77;3.85;;;13.90;81.30;;;;;;7375437;19;19911;-75
2023/04/01 08:28:27;;;;;;;13.63;3.55;;;14.00;81.80;;;;;;7388724;19;19925;-74
2023/04/01 08:31:13;;;;;;;17.50;4.32;;;14.10;81.10;;;;;;7391576;19;19930;-75
2023/04/01 08:33:41;;;;;;;11.93;4.30;;;14.20;81.50;;;;;;7397401;19;20252;-74
2023/04/01 08:36:16;;;;;;;16.08;4.00;;;14.30;81.10;;;;;;7389022;19;19915;-74
2023/04/01 08:39:15;;;;;;;12.38;3.53;;;14.50;80.80;;;;;;7401366;19;19911;-74
2023/04/01 08:41:56;;;;;;;15.82;4.15;;;14.50;80.10;;;;;;7388932;19;20331;-74
2023/04/01 08:44:33;;;;;;;17.50;4.85;;;14.50;80.00;;;;;;7399898;19;19926;-73
2023/04/01 08:47:23;;;;;;;11.70;4.20;;;14.60;80.00;;;;;;7390273;19;19906;-74
2023/04/01 08:50:00;;;;;;;12.80;3.97;;;14.80;79.90;;;;;;7395913;19;20334;-74
2023/04/01 08:52:47;;;;;;;14.43;4.22;;;14.80;78.80;;;;;;7401288;19;19994;-76
2023/04/01 08:55:26;;;;;;;17.23;4.10;;;14.80;79.10;;;;;;7398006;19;19914;-75
2023/04/01 08:57:58;;;;;;;;;;;14.80;78.30;;;;;;7403013;19;19947;-74
2023/04/01 09:00:36;;;;;;;13.65;4.45;;;14.90;78.20;;;;;;7393587;19;19915;-75
2023/04/01 09:03:05;;;;;;;11.90;4.30;;;15.10;78.10;;;;;;7367679;19;19925;-74
2023/04/01 09:05:55;;;;;;;15.38;4.78;;;15.20;77.80;;;;;;7404612;19;19907;-74
2023/04/01 09:08:24;;;;;;;13.30;4.53;;;15.40;77.20;;;;;;7404741;19;19915;-75
2023/04/01 09:11:04;;;;;;;14.10;3.95;;;15.40;76.20;;;;;;7407590;19;19910;-73
2023/04/01 09:13:49;;;;;;;11.57;3.53;;;15.50;75.90;;;;;;7402063;19;19921;-74
2023/04/01 09:16:32;;;;;;;14.98;4.43;;;15.60;75.80;;;;;;7407352;19;19914;-77
2023/04/01 09:19:17;;;;;;;14.30;4.57;;;15.70;75.60;;;;;;7403383;19;19918;-75
2023/04/01 09:21:59;;;;;;;11.65;3.78;;;15.60;75.40;;;;;;7401873;19;19919;-74
2023/04/01 09:24:44;;;;;;;14.55;3.72;;;15.60;75.60;;;;;;7406040;19;19919;-75
2023/04/01 09:27:15;;;;;;;12.95;4.22;;;15.90;75.40;;;;;;7407165;19;20334;-75
2023/04/01 09:29:58;;;;;;;10.75;3.47;;;16.10;75.00;;;;;;7405442;19;19914;-76
2023/04/01 09:33:12;;;;;;;12.48;3.40;;;15.80;73.60;;;;;;7405024;19;19933;-75
2023/04/01 09:35:48;;;;;;;19.08;4.18;;;15.70;74.40;;;;;;7407952;19;19930;-75
2023/04/01 09:38:30;;;;;;;10.57;4.10;;;15.70;74.80;;;;;;7404245;19;20266;-74
2023/04/01 09:41:28;;;;;;;12.05;3.88;;;15.70;74.90;;;;;;7399257;19;20354;-75
2023/04/01 09:44:03;;;;;;;13.23;3.75;;;15.90;74.70;;;;;;7404942;19;20376;-73
2023/04/01 09:46:34;;;;;;;14.35;4.13;;;16.30;73.90;;;;;;7397927;19;19926;-77
2023/04/01 09:49:09;;;;;;;15.75;4.40;;;16.50;73.60;;;;;;7405299;19;19918;-75
2023/04/01 09:51:56;;;;;;;12.73;3.75;;;16.90;72.30;;;;;;7397167;19;19953;-73
2023/04/01 09:54:50;;;;;;;10.38;3.53;;;17.30;71.50;;;;;;7397941;19;22489;-73
2023/04/01 09:57:16;;;;;;;18.75;5.20;;;17.10;69.90;;;;;;7394547;19;20559;-75
2023/04/01 09:59:54;;;;;;;14.40;3.67;;;17.80;70.70;;;;;;7386578;19;19942;-75
2023/04/01 10:02:51;;;;;;;12.55;3.97;;;18.30;68.20;;;;;;7387620;19;20667;-73
2023/04/01 10:05:41;;;;;;;14.48;3.72;;;18.20;68.60;;;;;;7401880;19;19923;-75
2023/04/01 10:08:19;;;;;;;14.63;4.35;;;18.60;67.50;;;;;;7397639;19;19910;-75
2023/04/01 10:10:54;;;;;;;13.55;4.03;;;19.30;66.50;;;;;;7394725;19;19919;-74
2023/04/01 10:13:44;;;;;;;12.40;3.80;;;19.70;65.50;;;;;;7388646;19;19922;-74
2023/04/01 10:16:10;;;;;;;12.15;3.50;;;20.10;64.50;;;;;;7387643;19;20355;-73
2023/04/01 10:18:59;;;;;;;11.20;4.35;;;20.30;63.80;;;;;;7402976;19;20271;-75
2023/04/01 10:21:52;;;;;;;12.90;4.30;;;20.80;63.20;;;;;;7394549;19;19935;-75
2023/04/01 10:24:46;;;;;;;11.38;4.05;;;20.70;61.90;;;;;;7404634;19;19948;-75
2023/04/01 10:27:17;;;;;;;10.82;3.63;;;20.80;61.60;;;;;;7404019;19;19915;-74
2023/04/01 10:29:59;;;;;;;11.50;4.32;;;21.20;60.70;;;;;;7405789;19;20341;-74
2023/04/01 10:32:59;;;;;;;16.00;3.65;;;20.80;60.50;;;;;;7401838;19;19926;-75
2023/04/01 10:35:44;;;;;;;11.45;3.72;;;20.10;60.80;;;;;;7403654;19;19922;-74
2023/04/01 10:38:50;;;;;;;12.70;4.05;;;20.70;60.00;;;;;;7405055;19;19910;-75
2023/04/01 10:41:46;;;;;;;11.30;3.78;;;21.00;59.40;;;;;;7404118;19;19929;-75
2023/04/01 10:44:35;;;;;;;12.95;4.65;;;21.40;58.60;;;;;;7403215;19;19925;-75
2023/04/01 10:47:22;;;;;;;12.52;4.05;;;21.20;58.50;;;;;;7405139;19;19914;-76
2023/04/01 10:50:03;;;;;;;10.60;3.78;;;21.30;58.00;;;;;;7405534;19;19910;-74
2023/04/01 10:52:50;;;;;;;13.27;4.60;;;21.00;58.20;;;;;;7381870;19;19934;-75
2023/04/01 10:55:34;;;;;;;13.88;4.30;;;21.10;58.40;;;;;;7403955;19;19926;-74
2023/04/01 10:58:19;;;;;;;12.93;5.22;;;21.30;57.90;;;;;;7404077;19;20255;-75
2023/04/01 11:00:57;;;;;;;11.02;3.88;;;21.70;57.30;;;;;;7403706;19;19942;-75
2023/04/01 11:03:23;;;;;;;11.60;4.20;;;21.90;56.50;;;;;;7404266;19;19935;-75
2023/04/01 11:06:05;;;;;;;9.68;3.92;;;22.30;56.70;;;;;;7403847;19;20350;-74
2023/04/01 11:09:05;;;;;;;9.38;3.55;;;23.10;55.60;;;;;;7403381;19;19919;-75
2023/04/01 11:11:50;;;;;;;13.70;4.07;;;22.40;54.70;;;;;;7406586;19;20418;-74
2023/04/01 11:15:01;;;;;;;13.02;4.18;;;22.80;54.30;;;;;;7403397;19;19923;-74
2023/04/01 11:17:48;;;;;;;15.60;6.03;;;22.90;52.60;;;;;;7404725;19;19974;-74
2023/04/01 11:20:42;;;;;;;12.90;4.10;;;22.50;53.10;;;;;;7403069;19;20012;-75
2023/04/01 11:23:59;;;;;;;10.75;3.85;;;22.50;53.40;;;;;;7348990;19;19926;-74
2023/04/01 11:26:33;;;;;;;11.27;4.03;;;22.70;52.70;;;;;;7404130;19;19998;-76
2023/04/01 11:29:27;;;;;;;10.75;4.13;;;22.70;52.40;;;;;;7406914;19;19930;-76
2023/04/01 11:32:08;;;;;;;11.50;4.00;;;22.80;52.10;;;;;;7405152;19;19982;-75
2023/04/01 11:34:55;;;;;;;9.43;3.97;;;23.10;51.70;;;;;;7402273;19;19914;-75
2023/04/01 11:37:21;;;;;;;14.63;4.72;;;24.00;50.70;;;;;;7404424;19;19923;-75
2023/04/01 11:40:33;;;;;;;10.70;4.43;;;24.70;49.50;;;;;;7405361;19;19922;-75
2023/04/01 11:43:22;;;;;;;12.07;4.35;;;24.30;49.10;;;;;;7401335;19;19966;-75
2023/04/01 11:46:01;;;;;;;11.88;4.10;;;23.80;48.80;;;;;;7401447;19;19919;-75
2023/04/01 11:48:39;;;;;;;10.38;4.13;;;24.10;49.00;;;;;;7404760;19;19929;-76
2023/04/01 11:51:23;;;;;;;9.95;3.80;;;23.20;49.00;;;;;;7403380;19;20379;-74
2023/04/01 11:54:19;;;;;;;11.75;4.20;;;22.90;48.30;;;;;;7404317;19;19918;-75
2023/04/01 11:57:06;;;;;;;8.35;3.50;;;21.60;49.20;;;;;;7403849;19;19918;-75
2023/04/01 11:59:59;;;;;;;11.70;4.35;;;20.80;50.30;;;;;;7402717;19;19929;-74
2023/04/01 12:02:46;;;;;;;11.57;4.60;;;21.90;53.00;;;;;;7399428;19;19935;-75
2023/04/01 12:05:55;;;;;;;13.05;4.68;;;22.50;52.00;;;;;;7275547;19;19978;-75
2023/04/01 12:08:42;;;;;;;13.13;4.22;;;22.40;52.50;;;;;;7403032;19;19922;-75
2023/04/01 12:11:40;;;;;;;12.38;4.72;;;22.10;53.30;;;;;;7401826;19;19921;-76
2023/04/01 12:14:25;;;;;;;14.70;5.63;;;22.30;54.40;;;;;;7403480;19;20437;-76
2023/04/01 12:16:58;;;;;;;10.15;3.63;;;21.50;54.50;;;;;;7404432;19;20271;-76
2023/04/01 12:19:39;;;;;;;15.80;4.72;;;22.30;54.00;;;;;;7401307;19;19918;-76
2023/04/01 12:22:26;;;;;;;12.77;3.67;;;22.40;53.60;;;;;;7394783;19;19941;-75
2023/04/01 12:25:24;;;;;;;13.15;4.43;;;23.10;53.10;;;;;;7392967;19;19942;-75
2023/04/01 12:27:59;;;;;;;13.52;4.68;;;21.70;54.00;;;;;;7402453;19;19921;-75
2023/04/01 12:30:52;;;;;;;14.30;4.32;;;21.30;54.50;;;;;;7392797;19;19915;-74
2023/04/01 12:33:47;;;;;;;15.90;4.18;;;21.60;54.30;;;;;;7396994;19;19925;-75
2023/04/01 12:36:42;;;;;;;14.90;4.45;;;22.50;53.60;;;;;;7389154;19;19938;-75
2023/04/01 12:39:11;;;;;;;13.00;4.30;;;23.30;51.40;;;;;;7396570;19;19918;-74
2023/04/01 12:42:08;;;;;;;17.75;5.45;;;23.50;52.00;;;;;;7399626;19;20566;-74
2023/04/01 12:45:02;;;;;;;11.88;4.72;;;24.30;50.90;;;;;;7396722;19;20279;-76
2023/04/01 12:47:43;;;;;;;13.95;4.18;;;24.00;50.40;;;;;;7345372;19;20427;-75
2023/04/01 12:50:49;;;;;;;11.75;4.97;;;23.90;50.10;;;;;;7402277;19;19921;-76
2023/04/01 12:53:39;;;;;;;10.77;3.63;;;24.30;50.20;;;;;;7346199;19;19932;-75
2023/04/01 12:56:29;;;;;;;12.65;5.07;;;23.10;49.90;;;;;;7398383;19;20254;-75
2023/04/01 12:58:59;;;;;;;11.57;3.85;;;23.60;49.90;;;;;;7403650;19;19921;-75
2023/04/01 13:01:49;;;;;;;10.75;3.90;;;23.50;48.70;;;;;;7398327;19;19923;-76
2023/04/01 13:04:44;;;;;;;11.30;4.75;;;23.60;49.40;;;;;;7398566;19;20698;-75
2023/04/01 13:07:33;;;;;;;10.15;3.90;;;23.40;49.00;;;;;;7395130;19;19915;-75
2023/04/01 13:10:15;;;;;;;9.02;3.22;;;22.60;49.80;;;;;;7400146;19;19922;-75
2023/04/01 13:13:13;;;;;;;9.07;3.60;;;22.80;50.50;;;;;;7395370;19;19918;-75
2023/04/01 13:15:50;;;;;;;12.63;4.82;;;23.50;49.70;;;;;;7376596;19;20555;-74
2023/04/01 13:18:28;;;;;;;10.90;4.72;;;23.00;49.00;;;;;;7393336;19;20435;-75
2023/04/01 13:21:12;;;;;;;12.13;3.95;;;24.20;48.80;;;;;;7398858;19;19919;-76
2023/04/01 13:23:50;;;;;;;9.70;3.75;;;23.40;49.00;;;;;;7398123;19;19918;-75
2023/04/01 13:26:35;;;;;;;8.38;3.42;;;23.20;49.50;;;;;;7398101;19;19915;-75